Pagina principală
METAR-TAF:

METAR-TAF

Aeroporturi :

La Paz, Bolivia

Latitudine: 16-31S, longitudine: 068-11W, elevație: 4058 m

Observații meteo curente

Raportul a fost făcut în urmă cu 30 de minute, la 08:00 UTC
Vânt 3 kt de la Nord
Temperatură 3°C
Umiditate 41%
Presiune 1038 hPa
Vizibilitate de 10 km sau mai mult

METAR: SLLP 140800Z 36003KT 9999 NSC 03/M09 Q1038

Ora: 04:30 (08:30 UTC)

Prognoză

Raportul a fost făcut în urmă cu 4 ore și 30 de minute, la 04:00 UTC
Prognoză valabilă de la 14 ora 06 UTC la 15 ora 06 UTC
Vânt 2 kt din direcții variabile
Vizibilitate de 10 km sau mai mult
Devenind
de la 14 ora 13 UTC la 14 ora 16 UTC
Vânt 12 kt de la Vest/Sud-vest
Devenind
de la 15 ora 00 UTC la 15 ora 02 UTC
Vânt 6 kt de la Nord-est

TAF: SLLP 140400Z 1406/1506 VRB02KT 9999 NSC TX17/1419Z TNM02/1411Z BECMG 1413/1416 25012KT BECMG 1500/1502 05006KT

Observații și prognoze meteo pentru peste 4.000 de aeroporturi (rapoarte METAR și TAF).

Stațiile disponibile sunt reprezentate pe hartă prin puncte galbene și roșii.

Țineți indicatorul mouse-ului pe punctul dorit pentru a vedea denumirea stației.

Apoi, faceți clic pentru a vedea observațiile și prognozele meteorologice.

Pentru a schimba harta: Pentru mărire, faceți clic pe butoanele verzi cu cruce neagră; pentru micșorare, pe butonul verde cu o liniuță; pentru hărți învecinate, pe săgețile verzi.


METAR-TAF: